Time;durP1;ratioP1;P1;durP2;ratioP2;P2;SDS_P1;SDS_P2;PMS_P1;PMS_P2;Temp;Humidity;BMP_temperature;BMP_pressure;BME280_temperature;BME280_humidity;BME280_pressure;Samples;Min_cycle;Max_cycle;Signal;HPM_P1;HPM_P2
2023/11/26 00:01:41;;;;;;;0.33;0.30;;;;;;;-0.40;100.00;97300.00;5008316;28;20049;-71
2023/11/26 00:04:08;;;;;;;0.30;0.30;;;;;;;-0.17;100.00;97305.69;5008948;28;20030;-73
2023/11/26 00:06:34;;;;;;;0.77;0.73;;;;;;;-0.27;100.00;97288.50;5008400;28;20037;-72
2023/11/26 00:09:00;;;;;;;0.20;0.20;;;;;;;-0.20;100.00;97325.03;5008631;28;20507;-71
2023/11/26 00:11:26;;;;;;;0.25;0.22;;;;;;;-0.52;100.00;97314.84;5008510;28;20041;-73
2023/11/26 00:13:51;;;;;;;0.73;0.25;;;;;;;-0.39;100.00;97331.25;5008652;28;20038;-73
2023/11/26 00:16:17;;;;;;;0.38;0.25;;;;;;;-0.38;100.00;97303.41;5008241;28;20030;-71
2023/11/26 00:18:43;;;;;;;0.40;0.30;;;;;;;-0.50;100.00;97283.66;5008705;28;20117;-72
2023/11/26 00:21:08;;;;;;;0.20;0.20;;;;;;;-0.20;100.00;97366.47;5008358;28;20520;-72
2023/11/26 00:23:34;;;;;;;0.47;0.30;;;;;;;-0.26;100.00;97398.38;4994907;28;20038;-74
2023/11/26 00:25:59;;;;;;;0.20;0.20;;;;;;;-0.30;100.00;97402.47;4991332;28;20409;-72
2023/11/26 00:28:25;;;;;;;0.20;0.20;;;;;;;-0.58;100.00;97391.50;4991503;28;20030;-72
2023/11/26 00:30:50;;;;;;;0.40;0.40;;;;;;;-0.33;100.00;97448.03;4990707;28;20034;-74
2023/11/26 00:33:18;;;;;;;1.15;0.40;;;;;;;-0.27;100.00;97457.50;4991438;28;20018;-74
2023/11/26 00:35:46;;;;;;;0.20;0.20;;;;;;;-0.77;100.00;97372.34;4991230;28;20085;-73
2023/11/26 00:38:13;;;;;;;0.50;0.50;;;;;;;-0.26;100.00;97437.28;4990956;28;20101;-72
2023/11/26 00:40:38;;;;;;;0.35;0.35;;;;;;;-0.84;100.00;97335.81;4990978;28;20042;-74
2023/11/26 00:43:04;;;;;;;0.20;0.20;;;;;;;-0.21;100.00;97419.69;4989489;28;20093;-74
2023/11/26 00:45:29;;;;;;;0.90;0.50;;;;;;;-0.48;100.00;97361.41;4990797;28;20041;-74
2023/11/26 00:47:57;;;;;;;0.60;0.40;;;;;;;-0.22;100.00;97402.75;4990884;28;20027;-72
2023/11/26 00:50:23;;;;;;;0.52;0.30;;;;;;;-0.23;100.00;97401.84;4991089;28;20060;-73
2023/11/26 00:52:48;;;;;;;0.23;0.20;;;;;;;-0.37;100.00;97358.34;4990688;28;20038;-72
2023/11/26 00:55:15;;;;;;;2.10;0.30;;;;;;;-0.27;100.00;97389.06;4990670;28;20022;-73
2023/11/26 00:57:40;;;;;;;0.13;0.13;;;;;;;-0.41;100.00;97374.28;4989475;28;20053;-73
2023/11/26 01:00:10;;;;;;;0.20;0.20;;;;;;;-0.27;100.00;97410.19;4990775;28;20030;-72
2023/11/26 01:02:35;;;;;;;0.10;0.10;;;;;;;-0.39;100.00;97370.13;4991213;28;20057;-76
2023/11/26 01:05:02;;;;;;;0.20;0.20;;;;;;;-0.19;100.00;97418.03;4990617;28;20034;-74
2023/11/26 01:07:30;;;;;;;0.20;0.20;;;;;;;-0.46;100.00;97387.63;4978041;28;20022;-72
2023/11/26 01:09:57;;;;;;;0.30;0.30;;;;;;;-0.44;100.00;97424.03;4990806;28;20022;-73
2023/11/26 01:12:22;;;;;;;0.30;0.30;;;;;;;-0.29;100.00;97457.44;4990596;28;20044;-72
2023/11/26 01:14:48;;;;;;;0.33;0.33;;;;;;;-0.22;100.00;97444.16;4990714;28;20435;-72
2023/11/26 01:17:13;;;;;;;0.52;0.20;;;;;;;-0.19;100.00;97450.97;4990450;28;20049;-72
2023/11/26 01:19:39;;;;;;;0.38;0.30;;;;;;;-0.21;100.00;97466.16;4990512;28;20027;-72
2023/11/26 01:22:05;;;;;;;0.20;0.20;;;;;;;-0.27;100.00;97465.97;4990235;28;20030;-72
2023/11/26 01:24:30;;;;;;;0.20;0.20;;;;;;;-0.22;100.00;97476.25;4990407;28;20117;-72
2023/11/26 01:26:56;;;;;;;1.23;0.20;;;;;;;-0.20;100.00;97467.00;4990551;28;20109;-74
2023/11/26 01:29:22;;;;;;;0.20;0.20;;;;;;;-0.15;100.00;97464.63;4990572;28;20030;-73
2023/11/26 01:31:47;;;;;;;0.20;0.20;;;;;;;-0.13;100.00;97460.47;4989969;28;20026;-73
2023/11/26 01:34:13;;;;;;;0.32;0.20;;;;;;;-0.10;100.00;97468.16;4990682;28;20090;-72
2023/11/26 01:36:40;;;;;;;0.28;0.28;;;;;;;-0.68;100.00;97379.38;4990233;28;20019;-72
2023/11/26 01:39:07;;;;;;;0.20;0.20;;;;;;;-0.11;100.00;97479.09;4990436;28;20563;-72
2023/11/26 01:41:33;;;;;;;0.17;0.17;;;;;;;-0.43;100.00;97428.28;4989737;28;20420;-71
2023/11/26 01:43:59;;;;;;;0.77;0.22;;;;;;;-0.17;100.00;97475.56;4993346;28;20489;-72
2023/11/26 01:46:29;;;;;;;0.70;0.40;;;;;;;-0.16;100.00;97478.97;4994244;28;20033;-73
2023/11/26 01:48:56;;;;;;;0.20;0.20;;;;;;;-0.28;100.00;97483.66;4991449;28;20463;-72
2023/11/26 01:51:24;;;;;;;0.20;0.20;;;;;;;-0.19;100.00;97494.09;4992515;28;20591;-73
2023/11/26 01:53:52;;;;;;;0.20;0.20;;;;;;;-0.32;100.00;97485.25;4993145;28;20026;-73
2023/11/26 01:56:18;;;;;;;0.20;0.20;;;;;;;-0.30;100.00;97492.91;4991199;28;20105;-72
2023/11/26 01:58:44;;;;;;;0.40;0.40;;;;;;;-0.37;100.00;97485.09;4993391;28;20072;-72
2023/11/26 02:01:13;;;;;;;0.28;0.28;;;;;;;-0.26;100.00;97477.84;4992350;28;20465;-72
2023/11/26 02:03:39;;;;;;;0.30;0.30;;;;;;;-0.20;100.00;97495.78;4992766;28;20022;-75
2023/11/26 02:06:06;;;;;;;0.30;0.30;;;;;;;-0.15;100.00;97500.13;4992589;28;20050;-74
2023/11/26 02:08:32;;;;;;;0.30;0.23;;;;;;;-0.61;100.00;97442.09;4992439;28;20026;-71
2023/11/26 02:10:59;;;;;;;0.10;0.10;;;;;;;-0.78;100.00;97433.94;4992314;28;20038;-73
2023/11/26 02:13:25;;;;;;;0.20;0.20;;;;;;;-0.31;100.00;97508.91;4992796;28;20413;-73
2023/11/26 02:15:51;;;;;;;0.20;0.20;;;;;;;-0.03;100.00;97541.06;4992174;28;20032;-73
2023/11/26 02:18:19;;;;;;;1.15;0.30;;;;;;;-0.18;100.00;97500.88;4992124;28;20397;-73
2023/11/26 02:20:45;;;;;;;0.35;0.22;;;;;;;-0.51;100.00;97433.97;4992459;28;20038;-74
2023/11/26 02:23:11;;;;;;;1.20;0.20;;;;;;;0.18;100.00;97520.59;4992155;28;20481;-74
2023/11/26 02:25:37;;;;;;;0.75;0.30;;;;;;;0.19;100.00;97527.38;4991981;28;20501;-73
2023/11/26 02:28:05;;;;;;;0.80;0.30;;;;;;;0.18;100.00;97540.03;4992261;28;20026;-73
2023/11/26 02:30:32;;;;;;;0.70;0.60;;;;;;;0.16;100.00;97557.72;4992540;28;20030;-73
2023/11/26 02:32:58;;;;;;;2.22;0.73;;;;;;;0.17;100.00;97556.06;4991203;28;20027;-74
2023/11/26 02:35:24;;;;;;;1.35;1.00;;;;;;;0.22;100.00;97557.06;4992277;28;20448;-75
2023/11/26 02:37:50;;;;;;;1.33;0.60;;;;;;;-0.33;100.00;97464.09;4991753;28;20030;-74
2023/11/26 02:40:15;;;;;;;2.28;0.73;;;;;;;0.26;100.00;97556.34;4992433;28;20030;-74
2023/11/26 02:42:42;;;;;;;2.97;0.80;;;;;;;0.31;100.00;97557.31;4991857;28;20026;-75
2023/11/26 02:45:08;;;;;;;0.40;0.40;;;;;;;0.29;100.00;97541.22;4991702;28;20535;-75
2023/11/26 02:47:34;;;;;;;0.50;0.32;;;;;;;0.29;100.00;97551.38;4992079;28;20031;-75
2023/11/26 02:49:59;;;;;;;1.55;0.35;;;;;;;0.30;100.00;97565.78;4949784;28;1246695;-74
2023/11/26 02:52:25;;;;;;;2.22;0.65;;;;;;;0.24;100.00;97548.69;4992828;28;20046;-74
2023/11/26 02:54:50;;;;;;;0.50;0.32;;;;;;;0.13;100.00;97511.97;4992600;28;20038;-75
2023/11/26 02:57:16;;;;;;;0.75;0.50;;;;;;;0.47;100.00;97559.53;4993093;28;20432;-76
2023/11/26 02:59:45;;;;;;;0.20;0.20;;;;;;;-0.11;100.00;97454.63;4993502;28;20027;-75
2023/11/26 03:02:10;;;;;;;0.40;0.32;;;;;;;0.44;100.00;97564.50;4993099;28;20030;-74
2023/11/26 03:04:44;;;;;;;0.32;0.30;;;;;;;0.39;100.00;97552.50;4992935;28;20030;-75
2023/11/26 03:07:10;;;;;;;0.60;0.40;;;;;;;0.53;100.00;97588.44;4992785;28;20028;-74
2023/11/26 03:14:46;;;;;;;1.30;0.30;;;;;;;0.40;100.00;97593.16;4992866;28;20033;-74
2023/11/26 03:17:15;;;;;;;0.22;0.22;;;;;;;0.60;100.00;97624.22;4992001;28;20499;-74
2023/11/26 03:19:45;;;;;;;0.60;0.40;;;;;;;0.56;100.00;97621.53;4992259;28;20528;-73
2023/11/26 03:22:11;;;;;;;0.75;0.60;;;;;;;0.66;100.00;97643.88;4992683;28;20033;-74
2023/11/26 03:24:37;;;;;;;0.38;0.25;;;;;;;0.68;100.00;97648.97;4992569;28;20405;-75
2023/11/26 03:27:03;;;;;;;0.65;0.30;;;;;;;0.41;100.00;97617.72;4992474;28;20468;-76
2023/11/26 03:29:29;;;;;;;0.20;0.20;;;;;;;0.26;100.00;97595.28;4992367;28;20038;-74
2023/11/26 03:31:55;;;;;;;0.20;0.20;;;;;;;0.70;100.00;97672.72;4992104;28;20032;-74
2023/11/26 03:34:23;;;;;;;0.73;0.40;;;;;;;0.63;100.00;97684.38;4992572;28;20026;-74
2023/11/26 03:36:48;;;;;;;0.20;0.20;;;;;;;0.56;100.00;97687.53;4992422;28;20030;-75
2023/11/26 03:39:18;;;;;;;0.30;0.30;;;;;;;0.67;100.00;97711.56;4992343;28;20100;-74
2023/11/26 03:41:44;;;;;;;0.50;0.40;;;;;;;0.40;100.00;97663.34;4991357;28;20476;-75
2023/11/26 03:44:09;;;;;;;0.80;0.60;;;;;;;0.70;100.00;97724.38;4992096;28;20038;-74
2023/11/26 03:46:37;;;;;;;0.38;0.38;;;;;;;0.69;100.00;97726.88;4991543;28;20100;-74
2023/11/26 03:49:03;;;;;;;0.57;0.57;;;;;;;0.10;100.00;97628.56;4991941;28;20523;-74
2023/11/26 03:51:28;;;;;;;0.60;0.43;;;;;;;0.76;100.00;97737.28;4992289;28;20038;-74
2023/11/26 03:53:54;;;;;;;0.52;0.45;;;;;;;0.75;100.00;97743.16;4990893;28;20031;-75
2023/11/26 03:56:20;;;;;;;0.50;0.50;;;;;;;0.85;100.00;97763.75;4991712;28;20037;-73
2023/11/26 03:58:45;;;;;;;0.63;0.63;;;;;;;0.77;100.00;97758.44;4991753;28;20061;-74
2023/11/26 04:01:11;;;;;;;0.30;0.30;;;;;;;0.71;100.00;97754.03;4991152;28;20042;-74
2023/11/26 04:03:37;;;;;;;0.40;0.40;;;;;;;0.84;100.00;97797.63;4990896;28;20608;-77
2023/11/26 04:06:03;;;;;;;0.75;0.75;;;;;;;0.62;100.00;97766.44;4990692;28;20037;-74
2023/11/26 04:08:29;;;;;;;0.30;0.30;;;;;;;0.95;100.00;97812.38;4991612;28;20041;-79
2023/11/26 04:10:55;;;;;;;0.43;0.40;;;;;;;0.85;100.00;97789.16;4992019;28;20034;-76
2023/11/26 04:13:22;;;;;;;0.30;0.30;;;;;;;1.10;100.00;97828.94;4990284;28;20034;-75
2023/11/26 04:15:54;;;;;;;0.30;0.30;;;;;;;1.06;100.00;97843.19;4991312;28;20030;-75
2023/11/26 04:18:21;;;;;;;0.30;0.30;;;;;;;1.11;100.00;97854.38;4991483;28;20046;-76
2023/11/26 04:20:47;;;;;;;1.13;0.63;;;;;;;0.90;100.00;97828.28;4990865;28;20100;-76
2023/11/26 04:23:14;;;;;;;0.63;0.50;;;;;;;1.03;100.00;97865.97;4991459;28;20117;-78
2023/11/26 04:25:40;;;;;;;0.40;0.40;;;;;;;1.02;100.00;97868.47;4978267;28;20038;-76
2023/11/26 04:28:06;;;;;;;0.75;0.70;;;;;;;0.93;100.00;97884.25;4991488;28;20034;-76
2023/11/26 04:30:31;;;;;;;0.47;0.47;;;;;;;0.71;100.00;97868.31;4990803;28;20080;-78
2023/11/26 04:32:57;;;;;;;0.30;0.30;;;;;;;0.92;100.00;97907.94;4989727;28;20548;-80
2023/11/26 04:35:24;;;;;;;0.65;0.65;;;;;;;0.94;100.00;97917.31;4991259;28;20068;-75
2023/11/26 04:37:50;;;;;;;0.32;0.30;;;;;;;0.90;100.00;97909.56;4990992;28;20169;-77
2023/11/26 04:40:17;;;;;;;0.30;0.30;;;;;;;0.51;100.00;97851.53;4991064;28;20049;-76
2023/11/26 04:42:45;;;;;;;0.73;0.57;;;;;;;0.96;100.00;97937.72;5021796;28;20107;-76
2023/11/26 04:45:11;;;;;;;5.20;2.75;;;;;;;0.94;100.00;97955.44;4990413;28;20031;-78
2023/11/26 04:47:37;;;;;;;5.63;2.60;;;;;;;1.04;100.00;97973.53;4990505;28;20026;-76
2023/11/26 04:50:04;;;;;;;10.02;6.80;;;;;;;1.05;100.00;97986.28;4990546;28;20103;-77
2023/11/26 04:52:31;;;;;;;4.90;3.45;;;;;;;0.82;100.00;97966.84;4990411;28;20038;-76
2023/11/26 04:54:57;;;;;;;11.27;9.63;;;;;;;0.43;100.00;97907.97;4991040;28;20041;-75
2023/11/26 04:57:22;;;;;;;4.95;3.20;;;;;;;0.80;100.00;97972.75;4990219;28;20039;-77
2023/11/26 04:59:48;;;;;;;4.35;3.50;;;;;;;1.00;100.00;98038.63;4984716;28;20045;-76
2023/11/26 05:02:14;;;;;;;2.40;1.10;;;;;;;1.01;100.00;98045.44;4990764;28;20026;-76
2023/11/26 05:04:40;;;;;;;12.25;10.07;;;;;;;0.72;100.00;98024.91;4988038;28;20469;-76
2023/11/26 05:07:06;;;;;;;5.68;4.45;;;;;;;0.95;100.00;98045.22;4990893;28;20409;-76
2023/11/26 05:09:32;;;;;;;5.88;1.92;;;;;;;0.83;100.00;98035.47;4990612;28;20409;-76
2023/11/26 05:12:01;;;;;;;5.13;4.15;;;;;;;0.96;100.00;98077.44;4990756;28;20036;-77
2023/11/26 05:14:27;;;;;;;4.70;3.78;;;;;;;0.81;100.00;98049.81;4989540;28;20033;-76
2023/11/26 05:16:53;;;;;;;4.60;4.03;;;;;;;0.73;100.00;98066.44;4978917;28;20447;-75
2023/11/26 05:19:19;;;;;;;5.20;3.90;;;;;;;0.86;100.00;98088.06;4990860;28;20536;-76
2023/11/26 05:21:45;;;;;;;2.33;1.98;;;;;;;0.46;100.00;98027.38;4990389;28;20041;-76
2023/11/26 05:24:11;;;;;;;1.00;0.90;;;;;;;0.84;100.00;98104.94;4990957;28;20027;-75
2023/11/26 05:26:36;;;;;;;1.73;0.57;;;;;;;0.88;100.00;98109.31;4987711;28;20072;-76
2023/11/26 05:29:03;;;;;;;0.85;0.70;;;;;;;0.85;100.00;98099.03;4990682;28;20030;-76
2023/11/26 05:31:29;;;;;;;2.10;0.70;;;;;;;0.83;100.00;98082.88;4990149;28;20042;-76
2023/11/26 05:33:54;;;;;;;3.65;0.77;;;;;;;0.97;100.00;98099.47;4990716;28;20038;-76
2023/11/26 05:36:20;;;;;;;1.77;1.05;;;;;;;1.20;100.00;98142.66;4988973;28;20072;-76
2023/11/26 05:38:46;;;;;;;1.35;0.98;;;;;;;0.91;100.00;98092.50;5004787;28;20046;-76
2023/11/26 05:41:12;;;;;;;0.70;0.70;;;;;;;1.24;100.00;98155.53;4990322;28;20121;-76
2023/11/26 05:43:37;;;;;;;0.98;0.88;;;;;;;1.25;100.00;98151.31;4990884;28;20034;-76
2023/11/26 05:46:07;;;;;;;1.73;0.60;;;;;;;1.25;100.00;98166.56;4990549;28;20081;-77
2023/11/26 05:48:33;;;;;;;0.55;0.55;;;;;;;1.24;100.00;98180.94;4990029;28;20064;-78
2023/11/26 05:50:59;;;;;;;1.10;0.88;;;;;;;1.25;100.00;98186.91;4990079;28;20026;-76
2023/11/26 05:53:25;;;;;;;1.45;1.10;;;;;;;0.89;100.00;98133.91;4990369;28;20038;-77
2023/11/26 05:55:50;;;;;;;1.42;0.68;;;;;;;0.90;100.00;98156.81;4990511;28;20105;-78
2023/11/26 05:58:16;;;;;;;2.88;1.00;;;;;;;1.18;100.00;98212.91;4989705;28;20117;-79
2023/11/26 06:00:42;;;;;;;0.95;0.80;;;;;;;1.22;100.00;98222.38;4990483;28;20041;-76
2023/11/26 06:03:08;;;;;;;1.80;1.05;;;;;;;1.21;100.00;98225.72;4990702;28;20026;-78
2023/11/26 06:05:35;;;;;;;2.00;1.23;;;;;;;1.27;100.00;98226.81;4990761;28;20038;-79
2023/11/26 06:08:04;;;;;;;2.42;1.35;;;;;;;0.92;100.00;98182.28;4988219;28;20033;-78
2023/11/26 06:10:31;;;;;;;1.20;0.82;;;;;;;1.39;100.00;98236.56;4976009;28;20511;-79
2023/11/26 06:12:57;;;;;;;2.17;1.70;;;;;;;1.42;100.00;98251.94;4970970;28;20038;-82
2023/11/26 06:15:23;;;;;;;3.60;1.50;;;;;;;1.41;100.00;98272.25;4977019;28;20038;-78
2023/11/26 06:17:49;;;;;;;9.50;6.13;;;;;;;0.88;100.00;98205.84;4973909;28;20035;-79
2023/11/26 06:20:14;;;;;;;18.10;16.27;;;;;;;0.93;100.00;98239.91;4971197;28;20054;-78
2023/11/26 06:22:40;;;;;;;7.93;2.80;;;;;;;1.12;100.00;98282.13;4985358;28;20101;-79
2023/11/26 06:25:10;;;;;;;5.20;2.85;;;;;;;1.00;100.00;98241.88;4974144;28;20027;-77
2023/11/26 06:27:37;;;;;;;5.43;2.35;;;;;;;1.40;100.00;98311.19;4990644;28;20181;-77
2023/11/26 06:30:03;;;;;;;3.25;1.55;;;;;;;1.18;100.00;98322.19;4999934;28;20034;-79
2023/11/26 06:32:29;;;;;;;1.48;0.93;;;;;;;1.21;100.00;98347.72;4992865;28;20023;-77
2023/11/26 06:34:54;;;;;;;1.17;1.00;;;;;;;1.10;100.00;98352.38;4984455;28;20489;-78
2023/11/26 06:37:19;;;;;;;1.48;1.00;;;;;;;0.81;100.00;98347.00;4984509;28;20039;-78
2023/11/26 06:39:45;;;;;;;2.85;0.98;;;;;;;0.45;100.00;98289.66;4993194;28;20022;-77
2023/11/26 06:42:10;;;;;;;1.58;0.95;;;;;;;0.60;100.00;98332.59;4993346;28;20034;-77
2023/11/26 06:44:36;;;;;;;2.15;1.10;;;;;;;0.90;100.00;98369.38;4993096;28;20116;-77
2023/11/26 06:47:02;;;;;;;1.90;1.30;;;;;;;0.54;100.00;98306.94;4985140;28;20060;-78
2023/11/26 06:49:27;;;;;;;3.33;1.95;;;;;;;0.43;100.00;98265.88;5020550;28;20043;-77
2023/11/26 06:51:55;;;;;;;2.50;1.65;;;;;;;1.00;100.00;98358.75;4989313;28;20034;-76
2023/11/26 06:54:21;;;;;;;5.88;2.00;;;;;;;1.01;100.00;98375.75;4991582;28;20101;-77
2023/11/26 06:56:46;;;;;;;3.00;1.70;;;;;;;0.70;100.00;98343.09;4973995;28;20114;-78
2023/11/26 06:59:12;;;;;;;3.00;1.73;;;;;;;0.72;100.00;98357.59;4974257;28;20035;-78
2023/11/26 07:01:38;;;;;;;4.07;2.47;;;;;;;0.87;100.00;98382.78;4977157;28;20117;-79
2023/11/26 07:04:03;;;;;;;6.45;3.10;;;;;;;0.95;100.00;98390.75;4989353;28;20026;-77
2023/11/26 07:06:29;;;;;;;5.13;2.60;;;;;;;0.89;100.00;98377.78;5003768;28;20043;-77
2023/11/26 07:08:54;;;;;;;8.57;4.45;;;;;;;0.30;100.00;98267.03;4992868;28;20034;-78
2023/11/26 07:11:24;;;;;;;68.00;29.23;;;;;;;0.95;100.00;98389.06;4987542;28;20037;-78
2023/11/26 07:13:51;;;;;;;7.45;4.40;;;;;;;1.02;100.00;98395.25;4990023;28;20477;-78
2023/11/26 07:16:21;;;;;;;6.40;3.60;;;;;;;0.92;100.00;98383.88;4988345;28;20133;-78
2023/11/26 07:18:47;;;;;;;10.77;5.25;;;;;;;1.21;100.00;98440.09;4991881;28;20373;-75
2023/11/26 07:21:14;;;;;;;3.08;1.50;;;;;;;1.00;100.00;98437.53;5008756;28;20034;-76
2023/11/26 07:23:40;;;;;;;2.95;1.70;;;;;;;0.65;100.00;98414.03;5009729;28;20042;-77
2023/11/26 07:26:14;;;;;;;3.30;1.42;;;;;;;0.78;100.00;98451.84;4998344;28;20183;-76
2023/11/26 07:28:40;;;;;;;2.65;1.23;;;;;;;0.73;100.00;98447.38;5009663;28;20125;-78
2023/11/26 07:31:13;;;;;;;1.77;1.40;;;;;;;0.35;100.00;98404.28;5009636;28;20465;-78
2023/11/26 07:33:39;;;;;;;2.28;1.48;;;;;;;0.86;100.00;98486.88;5009069;28;20044;-77
2023/11/26 07:36:23;;;;;;;1.95;1.30;;;;;;;0.44;100.00;98413.97;5009999;28;20045;-76
2023/11/26 07:38:53;;;;;;;2.67;1.30;;;;;;;0.61;100.00;98447.69;5009498;28;20114;-76
2023/11/26 07:41:20;;;;;;;2.72;1.40;;;;;;;0.87;100.00;98478.44;5008289;28;20077;-78
2023/11/26 07:43:45;;;;;;;2.75;1.40;;;;;;;1.02;100.00;98501.97;5009501;28;20088;-76
2023/11/26 07:46:12;;;;;;;3.92;2.00;;;;;;;0.53;100.00;98426.22;5008727;28;20034;-76
2023/11/26 07:48:40;;;;;;;2.80;1.85;;;;;;;1.00;100.00;98517.94;4992826;28;20076;-76
2023/11/26 07:51:06;;;;;;;5.95;3.83;;;;;;;0.89;100.00;98487.03;5008623;28;20084;-77
2023/11/26 07:53:32;;;;;;;3.67;2.38;;;;;;;1.06;100.00;98519.09;4985771;28;20397;-78
2023/11/26 07:56:00;;;;;;;3.55;2.10;;;;;;;1.10;100.00;98528.59;4973069;28;20413;-75
2023/11/26 07:58:31;;;;;;;2.55;1.60;;;;;;;1.24;100.00;98541.88;4973053;28;20038;-77
2023/11/26 08:00:58;;;;;;;3.65;1.83;;;;;;;1.15;100.00;98530.44;4973244;28;20410;-77
2023/11/26 08:03:25;;;;;;;4.53;2.13;;;;;;;1.29;100.00;98542.09;4973476;28;20019;-76
2023/11/26 08:05:55;;;;;;;5.60;1.83;;;;;;;1.45;100.00;98563.94;4976034;28;20112;-76
2023/11/26 08:08:22;;;;;;;4.97;2.10;;;;;;;1.21;100.00;98523.97;4991812;28;20472;-77
2023/11/26 08:10:49;;;;;;;3.60;1.80;;;;;;;1.32;100.00;98526.97;4983883;28;20038;-73
2023/11/26 08:13:19;;;;;;;2.90;1.70;;;;;;;1.54;100.00;98543.97;4975224;28;20049;-76
2023/11/26 08:15:47;;;;;;;2.90;2.00;;;;;;;1.78;100.00;98551.78;4982573;28;20055;-76
2023/11/26 08:18:14;;;;;;;3.25;1.70;;;;;;;1.88;100.00;98560.66;4989301;28;20523;-76
2023/11/26 08:20:41;;;;;;;8.98;2.60;;;;;;;1.97;100.00;98569.44;5006421;28;20030;-77
2023/11/26 08:23:07;;;;;;;6.13;4.32;;;;;;;2.05;100.00;98585.91;4991793;28;20030;-76
2023/11/26 08:25:34;;;;;;;7.13;3.05;;;;;;;1.85;100.00;98569.84;4991306;28;20037;-76
2023/11/26 08:28:01;;;;;;;6.40;3.38;;;;;;;2.04;100.00;98602.84;4991533;28;20035;-76
2023/11/26 08:30:47;;;;;;;8.23;4.32;;;;;;;2.08;100.00;98627.63;5028170;28;20128;-75
2023/11/26 08:33:17;;;;;;;5.30;2.78;;;;;;;2.09;100.00;98631.03;5011857;28;20055;-76
2023/11/26 08:35:43;;;;;;;6.80;3.90;;;;;;;2.07;100.00;98628.44;5021843;28;20038;-74
2023/11/26 08:38:10;;;;;;;5.32;3.88;;;;;;;1.98;100.00;98617.00;5021636;28;20052;-81
2023/11/26 08:40:38;;;;;;;5.57;3.05;;;;;;;1.91;100.00;98616.75;5027865;28;20048;-73
2023/11/26 08:43:09;;;;;;;4.43;2.80;;;;;;;2.06;100.00;98653.81;4946948;28;20053;-75
2023/11/26 08:45:40;;;;;;;6.50;3.85;;;;;;;1.98;100.00;98661.16;5028016;28;20037;-76
2023/11/26 08:48:06;;;;;;;2.88;2.05;;;;;;;1.80;100.00;98670.53;5027984;28;20059;-77
2023/11/26 08:50:32;;;;;;;4.28;2.40;;;;;;;1.50;100.00;98631.13;5011218;28;20069;-75
2023/11/26 08:53:17;;;;;;;5.30;3.95;;;;;;;1.75;100.00;98668.66;5027092;28;20118;-76
2023/11/26 08:55:43;;;;;;;5.22;2.55;;;;;;;1.61;100.00;98664.66;4988483;28;20042;-74
2023/11/26 08:58:08;;;;;;;3.78;2.38;;;;;;;1.29;100.00;98611.59;4988419;28;20057;-76
2023/11/26 09:00:34;;;;;;;4.28;2.67;;;;;;;1.03;100.00;98577.41;4972008;28;20034;-74
2023/11/26 09:03:00;;;;;;;4.50;2.90;;;;;;;1.57;100.00;98665.31;4949752;29;20629;-73
2023/11/26 09:05:26;;;;;;;6.65;3.25;;;;;;;1.44;100.00;98669.00;4949634;28;20042;-74
2023/11/26 09:07:51;;;;;;;5.85;3.80;;;;;;;1.53;100.00;98691.44;4949821;29;20047;-72
2023/11/26 09:10:19;;;;;;;4.45;2.63;;;;;;;1.35;100.00;98671.16;4949811;28;20453;-74
2023/11/26 09:12:45;;;;;;;4.38;2.70;;;;;;;1.49;100.00;98695.50;4949599;29;20606;-72
2023/11/26 09:15:11;;;;;;;3.83;2.42;;;;;;;1.49;100.00;98692.97;4949830;28;20039;-74
2023/11/26 09:17:41;;;;;;;3.65;2.33;;;;;;;1.44;100.00;98699.53;4949745;29;20050;-73
2023/11/26 09:20:11;;;;;;;4.40;2.42;;;;;;;1.37;100.00;98718.72;4981710;28;20039;-74
2023/11/26 09:22:38;;;;;;;3.03;2.08;;;;;;;1.36;100.00;98727.16;4949629;28;20066;-73
2023/11/26 09:25:08;;;;;;;2.78;2.15;;;;;;;0.77;100.00;98633.00;4949390;28;20461;-73
2023/11/26 09:27:35;;;;;;;6.13;3.90;;;;;;;1.35;100.00;98719.47;4984652;28;20042;-76
2023/11/26 09:30:00;;;;;;;7.07;4.13;;;;;;;1.40;100.00;98736.66;4990698;28;20444;-74
2023/11/26 09:32:26;;;;;;;6.80;4.90;;;;;;;1.51;100.00;98741.34;4990394;28;20037;-73
2023/11/26 09:34:53;;;;;;;5.85;4.05;;;;;;;0.95;100.00;98647.34;4988942;28;20030;-71
2023/11/26 09:37:19;;;;;;;4.05;2.95;;;;;;;1.53;100.00;98740.59;4990667;28;20022;-75
2023/11/26 09:39:45;;;;;;;3.67;2.50;;;;;;;1.35;100.00;98755.91;5020899;28;20046;-72
2023/11/26 09:42:11;;;;;;;3.83;3.03;;;;;;;1.39;100.00;98755.25;4990874;28;20026;-74
2023/11/26 09:44:42;;;;;;;3.30;1.98;;;;;;;1.24;100.00;98731.69;4990188;28;20022;-75
2023/11/26 09:47:10;;;;;;;5.72;3.55;;;;;;;1.58;100.00;98778.97;4989963;28;20030;-77
2023/11/26 09:49:36;;;;;;;4.82;3.25;;;;;;;1.62;100.00;98768.16;4990144;28;20111;-74
2023/11/26 09:52:02;;;;;;;4.90;2.90;;;;;;;1.16;100.00;98688.13;5004583;28;20468;-77
2023/11/26 09:54:28;;;;;;;6.28;3.08;;;;;;;1.73;100.00;98784.78;4990176;28;20089;-74
2023/11/26 09:57:02;;;;;;;2.90;1.90;;;;;;;1.82;100.00;98806.31;4990673;28;20039;-76
2023/11/26 09:59:32;;;;;;;5.22;2.75;;;;;;;1.83;100.00;98806.38;4990225;28;20495;-74
2023/11/26 10:01:58;;;;;;;4.22;2.85;;;;;;;1.70;100.00;98764.25;4990050;28;20062;-73
2023/11/26 10:04:25;;;;;;;3.15;2.10;;;;;;;1.87;100.00;98802.31;4989847;28;20496;-72
2023/11/26 10:06:52;;;;;;;2.90;1.45;;;;;;;1.97;100.00;98822.28;5007995;28;20046;-72
2023/11/26 10:09:18;;;;;;;2.78;1.73;;;;;;;1.93;100.00;98800.03;4994265;28;20031;-73
2023/11/26 10:11:45;;;;;;;4.45;2.40;;;;;;;1.82;100.00;98816.50;4994118;28;20449;-72
2023/11/26 10:14:19;;;;;;;3.15;2.00;;;;;;;2.01;100.00;98821.63;4981075;28;20036;-74
2023/11/26 10:16:47;;;;;;;2.80;1.75;;;;;;;2.05;100.00;98846.38;4993616;28;20476;-71
2023/11/26 10:19:27;;;;;;;4.63;2.33;;;;;;;2.05;100.00;98851.47;4994272;28;20022;-73
2023/11/26 10:21:57;;;;;;;3.03;2.00;;;;;;;1.96;100.00;98847.66;4994003;28;20065;-71
2023/11/26 10:24:27;;;;;;;3.63;2.10;;;;;;;2.04;100.00;98857.38;4993674;28;20555;-71
2023/11/26 10:26:57;;;;;;;2.55;2.10;;;;;;;2.06;100.00;98875.28;5007822;28;20042;-71
2023/11/26 10:29:25;;;;;;;3.05;2.17;;;;;;;2.17;100.00;98875.72;4993922;28;20058;-71
2023/11/26 10:32:00;;;;;;;5.63;3.08;;;;;;;2.01;100.00;98849.59;4993538;28;20022;-71
2023/11/26 10:34:26;;;;;;;4.20;2.83;;;;;;;2.32;100.00;98904.44;5023992;28;20076;-69
2023/11/26 10:36:52;;;;;;;3.08;2.15;;;;;;;2.37;100.00;98917.41;4993584;28;20105;-74
2023/11/26 10:39:17;;;;;;;3.00;2.17;;;;;;;2.29;100.00;98911.94;4991956;28;20038;-68
2023/11/26 10:41:46;;;;;;;2.88;1.95;;;;;;;2.49;100.00;98919.59;4993656;28;20452;-72
2023/11/26 10:44:13;;;;;;;2.50;1.80;;;;;;;1.72;100.00;98812.66;4993328;28;20560;-70
2023/11/26 10:46:41;;;;;;;3.78;2.40;;;;;;;2.04;100.00;98862.47;4993378;28;20030;-71
2023/11/26 10:49:29;;;;;;;3.83;2.03;;;;;;;2.10;100.00;98935.69;4993879;28;20140;-69
2023/11/26 10:52:04;;;;;;;3.38;2.33;;;;;;;1.99;100.00;98949.59;4993744;28;20477;-69
2023/11/26 10:54:38;;;;;;;2.92;1.95;;;;;;;1.50;100.00;98867.63;4993861;28;20443;-69
2023/11/26 10:57:12;;;;;;;4.20;2.53;;;;;;;1.85;100.00;98936.25;4992408;28;20034;-69
2023/11/26 10:59:43;;;;;;;4.47;2.10;;;;;;;1.86;100.00;98945.63;4993856;28;20041;-69
2023/11/26 11:02:13;;;;;;;5.75;3.08;;;;;;;1.80;100.00;98945.34;4993615;28;20046;-74
2023/11/26 11:04:44;;;;;;;3.20;2.22;;;;;;;1.80;100.00;98947.88;4993560;28;20131;-67
2023/11/26 11:07:10;;;;;;;5.03;3.28;;;;;;;1.81;100.00;98960.66;4993322;28;20497;-69
2023/11/26 11:10:14;;;;;;;5.13;3.28;;;;;;;1.81;100.00;98962.31;4993653;28;20023;-70
2023/11/26 11:13:08;;;;;;;4.63;2.38;;;;;;;1.68;100.00;98959.19;4993631;28;20056;-70
2023/11/26 11:15:39;;;;;;;4.50;2.13;;;;;;;1.64;100.00;98967.50;4958212;28;20042;-68
2023/11/26 11:18:32;;;;;;;3.55;2.38;;;;;;;1.71;100.00;98976.31;4990790;28;20039;-69
2023/11/26 11:21:09;;;;;;;2.53;1.70;;;;;;;1.64;100.00;98998.00;4990655;28;20659;-69
2023/11/26 11:23:53;;;;;;;2.35;1.73;;;;;;;1.63;100.00;98988.63;4990804;28;20034;-70
2023/11/26 11:26:20;;;;;;;4.57;2.70;;;;;;;1.21;100.00;98922.16;4990646;28;20191;-70
2023/11/26 11:28:56;;;;;;;4.75;2.55;;;;;;;1.28;100.00;98924.22;4990769;28;20026;-70
2023/11/26 11:31:58;;;;;;;2.72;1.73;;;;;;;1.70;100.00;99005.94;4990601;28;20496;-74
2023/11/26 11:34:24;;;;;;;3.85;2.42;;;;;;;1.15;100.00;98935.47;4990625;28;20065;-70
2023/11/26 11:36:51;;;;;;;4.13;2.35;;;;;;;1.64;100.00;99023.44;4990536;28;20034;-70
2023/11/26 11:39:26;;;;;;;4.55;2.28;;;;;;;1.74;100.00;99045.13;4974313;28;20038;-70